Huvudsida
METAR-TAF:

METAR-TAF

Flygplatser :

Zvartnots internationella flygplats

Jerevan, Armenien

latitud: 40-08-50N, longitud: 044-23-45E, höjd: 865 m

Aktuellt väderrapport

Denna rapport gjordes för 38 minuter sedan, klockan 09:00 UTC
Vind 4 kt från väst/sydväst, varierande mellan syd och nord/nordväst
Temperatur 29°C
Fuktighet 23%
Tryck 1010 hPa
Sikt 10 km eller mer
Få moln på en höjd av 4600 ft

METAR: UDYZ 220900Z 24004KT 180V330 9999 FEW046 29/06 Q1010 NOSIG

Tid: 13:38 (09:38 UTC)

Väderprognos

Denna rapport gjordes för 4 timmar och 38 minuter sedan, klockan 05:00 UTC
Prognos gäller från 22 kl. 06 UTC till 23 kl. 06 UTC
Vind 6 kt från syd/sydost
Sikt 10 km eller mer
Få moln på en höjd av 4000 ft
Temporärt
från 22 kl. 08 UTC till 22 kl. 21 UTC
Vind 18 kt varierande vindriktning i byarna ända upp till 28 kt
Få moln på en höjd av 4000 ft, Cumulonimbus.

TAF: UDYZ 220500Z 2206/2306 16006KT 9999 FEW040 TEMPO 2208/2221 VRB18G28KT FEW040CB

Aktuella väderrapporter och prognoser från 4000 flygplatser (METAR- och TAF-rapporter).

De tillgängliga stationerna syns som gula och röda prickar på kartan.

För musen över prickarna för att se namnen på stationerna.

Klicka sedan för att få väderrapporter och prognoser.

För att ändra kartan: Klicka på de gröna knapparna med ett svart kors på för att zooma in; den gröna knappen med ett streck på för att zooma ut; eller på de gröna pilarna för angränsande kartor.


METAR-TAF: